Terminal Aerodrome Forecast
Issued by NWS Grand Rapids, MI

Home | Current Version | Previous Version | Text Only | Print | Product List | Glossary On
Versions: 1 2 3 4 5 6 7 8 9 10 11 12 13 14 15 16 17 18 19 20 21 22 23 24 25 26 27
422
FTUS43 KGRR 120707 AAC
TAFGRR
TAF AMD
KGRR 120707Z 1207/1306 32019G26KT P6SM -SHSN OVC035
      TEMPO 1208/1212 3SM -SHSN OVC014
     FM130300 30007KT P6SM BKN040=

USA.gov is the U.S. government's official web portal to all federal, state and local government web resources and services.